sensor_id;sensor_type;location;lat;lon;timestamp;temperature;humidity
78767;SHT31;68092;51.982;5.680;2023-10-13T00:00:34;21.3;71.2
78767;SHT31;68092;51.982;5.680;2023-10-13T00:03:03;21.3;71.3
78767;SHT31;68092;51.982;5.680;2023-10-13T00:05:33;21.3;71.2
78767;SHT31;68092;51.982;5.680;2023-10-13T00:08:03;21.3;71.2
78767;SHT31;68092;51.982;5.680;2023-10-13T00:10:32;21.3;71.3
78767;SHT31;68092;51.982;5.680;2023-10-13T00:13:02;21.3;71.1
78767;SHT31;68092;51.982;5.680;2023-10-13T00:15:41;21.3;71.1
78767;SHT31;68092;51.982;5.680;2023-10-13T00:18:17;21.3;71.1
78767;SHT31;68092;51.982;5.680;2023-10-13T00:20:46;21.3;71.1
78767;SHT31;68092;51.982;5.680;2023-10-13T00:23:16;21.3;71.1
78767;SHT31;68092;51.982;5.680;2023-10-13T00:25:47;21.3;71.1
78767;SHT31;68092;51.982;5.680;2023-10-13T00:28:23;21.3;71.2
78767;SHT31;68092;51.982;5.680;2023-10-13T00:30:54;21.3;71.1
78767;SHT31;68092;51.982;5.680;2023-10-13T00:33:31;21.3;71.1
78767;SHT31;68092;51.982;5.680;2023-10-13T00:36:02;21.3;71.1
78767;SHT31;68092;51.982;5.680;2023-10-13T00:38:36;21.3;70.9
78767;SHT31;68092;51.982;5.680;2023-10-13T00:41:07;21.3;70.9
78767;SHT31;68092;51.982;5.680;2023-10-13T00:43:47;21.3;70.9
78767;SHT31;68092;51.982;5.680;2023-10-13T00:46:36;21.3;71.1
78767;SHT31;68092;51.982;5.680;2023-10-13T00:49:12;21.3;71.0
78767;SHT31;68092;51.982;5.680;2023-10-13T00:51:44;21.3;70.8
78767;SHT31;68092;51.982;5.680;2023-10-13T00:54:17;21.3;71.0
78767;SHT31;68092;51.982;5.680;2023-10-13T00:56:55;21.3;70.9
78767;SHT31;68092;51.982;5.680;2023-10-13T00:59:31;21.3;70.8
78767;SHT31;68092;51.982;5.680;2023-10-13T01:02:04;21.3;70.8
78767;SHT31;68092;51.982;5.680;2023-10-13T01:04:46;21.3;70.6
78767;SHT31;68092;51.982;5.680;2023-10-13T01:07:15;21.3;70.6
78767;SHT31;68092;51.982;5.680;2023-10-13T01:09:48;21.3;70.6
78767;SHT31;68092;51.982;5.680;2023-10-13T01:12:19;21.3;70.5
78767;SHT31;68092;51.982;5.680;2023-10-13T01:14:50;21.3;70.7
78767;SHT31;68092;51.982;5.680;2023-10-13T01:17:18;21.3;70.7
78767;SHT31;68092;51.982;5.680;2023-10-13T01:19:53;21.3;70.7
78767;SHT31;68092;51.982;5.680;2023-10-13T01:22:25;21.3;70.6
78767;SHT31;68092;51.982;5.680;2023-10-13T01:24:55;21.3;70.7
78767;SHT31;68092;51.982;5.680;2023-10-13T01:27:34;21.3;70.5
78767;SHT31;68092;51.982;5.680;2023-10-13T01:30:05;21.3;70.7
78767;SHT31;68092;51.982;5.680;2023-10-13T01:32:38;21.3;70.7
78767;SHT31;68092;51.982;5.680;2023-10-13T01:35:13;21.3;70.8
78767;SHT31;68092;51.982;5.680;2023-10-13T01:37:45;21.3;70.8
78767;SHT31;68092;51.982;5.680;2023-10-13T01:40:14;21.3;70.9
78767;SHT31;68092;51.982;5.680;2023-10-13T01:42:47;21.2;70.7
78767;SHT31;68092;51.982;5.680;2023-10-13T01:45:20;21.2;70.8
78767;SHT31;68092;51.982;5.680;2023-10-13T01:47:54;21.2;70.8
78767;SHT31;68092;51.982;5.680;2023-10-13T01:50:23;21.2;71.0
78767;SHT31;68092;51.982;5.680;2023-10-13T01:52:56;21.3;70.8
78767;SHT31;68092;51.982;5.680;2023-10-13T01:55:33;21.3;70.7
78767;SHT31;68092;51.982;5.680;2023-10-13T01:58:06;21.2;70.8
78767;SHT31;68092;51.982;5.680;2023-10-13T02:00:41;21.2;70.7
78767;SHT31;68092;51.982;5.680;2023-10-13T02:03:12;21.2;70.7
78767;SHT31;68092;51.982;5.680;2023-10-13T02:05:45;21.2;70.5
78767;SHT31;68092;51.982;5.680;2023-10-13T02:08:19;21.2;70.5
78767;SHT31;68092;51.982;5.680;2023-10-13T02:10:52;21.2;70.6
78767;SHT31;68092;51.982;5.680;2023-10-13T02:13:23;21.2;70.7
78767;SHT31;68092;51.982;5.680;2023-10-13T02:15:56;21.2;70.5
78767;SHT31;68092;51.982;5.680;2023-10-13T02:18:29;21.2;70.6
78767;SHT31;68092;51.982;5.680;2023-10-13T02:21:08;21.2;70.4
78767;SHT31;68092;51.982;5.680;2023-10-13T02:23:42;21.2;70.6
78767;SHT31;68092;51.982;5.680;2023-10-13T02:26:12;21.2;70.6
78767;SHT31;68092;51.982;5.680;2023-10-13T02:28:42;21.2;70.6
78767;SHT31;68092;51.982;5.680;2023-10-13T02:31:19;21.2;70.5
78767;SHT31;68092;51.982;5.680;2023-10-13T02:33:50;21.2;70.7
78767;SHT31;68092;51.982;5.680;2023-10-13T02:36:22;21.2;70.5
78767;SHT31;68092;51.982;5.680;2023-10-13T02:38:55;21.2;70.6
78767;SHT31;68092;51.982;5.680;2023-10-13T02:41:24;21.2;70.5
78767;SHT31;68092;51.982;5.680;2023-10-13T02:43:55;21.2;70.4
78767;SHT31;68092;51.982;5.680;2023-10-13T02:46:26;21.3;70.4
78767;SHT31;68092;51.982;5.680;2023-10-13T02:49:01;21.3;70.2
78767;SHT31;68092;51.982;5.680;2023-10-13T02:51:36;21.3;70.2
78767;SHT31;68092;51.982;5.680;2023-10-13T02:54:08;21.3;70.1
78767;SHT31;68092;51.982;5.680;2023-10-13T02:56:39;21.3;70.1
78767;SHT31;68092;51.982;5.680;2023-10-13T02:59:15;21.3;70.3
78767;SHT31;68092;51.982;5.680;2023-10-13T03:01:46;21.3;70.3
78767;SHT31;68092;51.982;5.680;2023-10-13T03:04:18;21.3;70.2
78767;SHT31;68092;51.982;5.680;2023-10-13T03:06:53;21.3;69.9
78767;SHT31;68092;51.982;5.680;2023-10-13T03:09:26;21.3;70.0
78767;SHT31;68092;51.982;5.680;2023-10-13T03:11:54;21.3;69.9
78767;SHT31;68092;51.982;5.680;2023-10-13T03:14:24;21.3;70.1
78767;SHT31;68092;51.982;5.680;2023-10-13T03:17:00;21.2;70.0
78767;SHT31;68092;51.982;5.680;2023-10-13T03:19:33;21.2;69.9
78767;SHT31;68092;51.982;5.680;2023-10-13T03:22:05;21.2;69.8
78767;SHT31;68092;51.982;5.680;2023-10-13T03:24:37;21.2;69.9
78767;SHT31;68092;51.982;5.680;2023-10-13T03:27:11;21.2;70.0
78767;SHT31;68092;51.982;5.680;2023-10-13T03:29:44;21.2;70.0
78767;SHT31;68092;51.982;5.680;2023-10-13T03:32:20;21.2;70.1
78767;SHT31;68092;51.982;5.680;2023-10-13T03:34:52;21.2;70.1
78767;SHT31;68092;51.982;5.680;2023-10-13T03:37:27;21.2;70.2
78767;SHT31;68092;51.982;5.680;2023-10-13T03:40:05;21.1;70.4
78767;SHT31;68092;51.982;5.680;2023-10-13T03:42:42;21.1;70.6
78767;SHT31;68092;51.982;5.680;2023-10-13T03:45:15;21.1;70.5
78767;SHT31;68092;51.982;5.680;2023-10-13T03:47:45;21.1;70.6
78767;SHT31;68092;51.982;5.680;2023-10-13T03:50:13;21.1;70.7
78767;SHT31;68092;51.982;5.680;2023-10-13T03:52:56;21.1;70.9
78767;SHT31;68092;51.982;5.680;2023-10-13T03:55:26;21.0;70.9
78767;SHT31;68092;51.982;5.680;2023-10-13T03:57:55;21.0;71.0
78767;SHT31;68092;51.982;5.680;2023-10-13T04:00:26;21.0;71.1
78767;SHT31;68092;51.982;5.680;2023-10-13T04:02:55;21.0;71.2
78767;SHT31;68092;51.982;5.680;2023-10-13T04:05:33;21.0;71.2
78767;SHT31;68092;51.982;5.680;2023-10-13T04:08:08;21.0;71.4
78767;SHT31;68092;51.982;5.680;2023-10-13T04:10:57;21.0;71.3
78767;SHT31;68092;51.982;5.680;2023-10-13T04:15:39;21.0;71.4
78767;SHT31;68092;51.982;5.680;2023-10-13T04:18:15;21.0;71.3
78767;SHT31;68092;51.982;5.680;2023-10-13T04:20:55;21.0;71.5
78767;SHT31;68092;51.982;5.680;2023-10-13T04:23:28;21.0;71.6
78767;SHT31;68092;51.982;5.680;2023-10-13T04:26:06;21.0;71.5
78767;SHT31;68092;51.982;5.680;2023-10-13T04:28:43;20.9;71.6
78767;SHT31;68092;51.982;5.680;2023-10-13T04:31:19;20.9;71.7
78767;SHT31;68092;51.982;5.680;2023-10-13T04:34:13;20.9;71.7
78767;SHT31;68092;51.982;5.680;2023-10-13T04:36:51;20.9;71.8
78767;SHT31;68092;51.982;5.680;2023-10-13T04:39:33;20.9;71.7
78767;SHT31;68092;51.982;5.680;2023-10-13T04:42:05;21.0;71.8
78767;SHT31;68092;51.982;5.680;2023-10-13T04:44:47;21.0;71.9
78767;SHT31;68092;51.982;5.680;2023-10-13T04:47:23;21.0;72.0
78767;SHT31;68092;51.982;5.680;2023-10-13T04:49:55;21.0;72.1
78767;SHT31;68092;51.982;5.680;2023-10-13T04:52:27;21.0;72.2
78767;SHT31;68092;51.982;5.680;2023-10-13T04:55:13;21.0;72.2
78767;SHT31;68092;51.982;5.680;2023-10-13T04:57:50;21.0;72.4
78767;SHT31;68092;51.982;5.680;2023-10-13T05:00:30;21.0;72.5
78767;SHT31;68092;51.982;5.680;2023-10-13T05:03:15;21.0;72.8
78767;SHT31;68092;51.982;5.680;2023-10-13T05:06:41;21.0;73.2
78767;SHT31;68092;51.982;5.680;2023-10-13T05:09:26;21.0;73.4
78767;SHT31;68092;51.982;5.680;2023-10-13T05:13:26;21.0;74.0
78767;SHT31;68092;51.982;5.680;2023-10-13T05:16:12;21.0;74.4
78767;SHT31;68092;51.982;5.680;2023-10-13T05:18:59;21.0;74.4
78767;SHT31;68092;51.982;5.680;2023-10-13T05:21:44;21.0;74.6
78767;SHT31;68092;51.982;5.680;2023-10-13T05:24:29;21.0;74.8
78767;SHT31;68092;51.982;5.680;2023-10-13T05:27:14;21.0;75.0
78767;SHT31;68092;51.982;5.680;2023-10-13T05:30:00;21.0;75.0
78767;SHT31;68092;51.982;5.680;2023-10-13T05:32:45;21.1;75.0
78767;SHT31;68092;51.982;5.680;2023-10-13T05:35:31;21.1;75.2
78767;SHT31;68092;51.982;5.680;2023-10-13T05:38:16;21.1;75.2
78767;SHT31;68092;51.982;5.680;2023-10-13T05:41:03;21.1;75.1
78767;SHT31;68092;51.982;5.680;2023-10-13T05:43:50;21.1;75.1
78767;SHT31;68092;51.982;5.680;2023-10-13T05:46:35;21.1;75.0
78767;SHT31;68092;51.982;5.680;2023-10-13T05:49:22;21.2;74.8
78767;SHT31;68092;51.982;5.680;2023-10-13T05:52:07;21.2;74.5
78767;SHT31;68092;51.982;5.680;2023-10-13T05:54:41;21.2;74.4
78767;SHT31;68092;51.982;5.680;2023-10-13T05:57:26;21.2;74.4
78767;SHT31;68092;51.982;5.680;2023-10-13T06:00:11;21.2;74.1
78767;SHT31;68092;51.982;5.680;2023-10-13T06:02:56;21.2;74.1
78767;SHT31;68092;51.982;5.680;2023-10-13T06:05:41;21.3;74.0
78767;SHT31;68092;51.982;5.680;2023-10-13T06:08:26;21.3;73.9
78767;SHT31;68092;51.982;5.680;2023-10-13T06:11:14;21.3;73.8
78767;SHT31;68092;51.982;5.680;2023-10-13T06:15:55;21.3;74.0
78767;SHT31;68092;51.982;5.680;2023-10-13T06:18:41;21.4;73.7
78767;SHT31;68092;51.982;5.680;2023-10-13T06:21:25;21.4;73.7
78767;SHT31;68092;51.982;5.680;2023-10-13T06:24:10;21.4;73.7
78767;SHT31;68092;51.982;5.680;2023-10-13T06:26:55;21.4;73.8
78767;SHT31;68092;51.982;5.680;2023-10-13T06:29:40;21.4;73.8
78767;SHT31;68092;51.982;5.680;2023-10-13T06:32:13;21.5;73.5
78767;SHT31;68092;51.982;5.680;2023-10-13T06:34:43;21.5;73.6
78767;SHT31;68092;51.982;5.680;2023-10-13T06:37:15;21.5;73.6
78767;SHT31;68092;51.982;5.680;2023-10-13T06:40:01;21.5;73.5
78767;SHT31;68092;51.982;5.680;2023-10-13T06:42:33;21.5;73.6
78767;SHT31;68092;51.982;5.680;2023-10-13T06:45:09;21.5;73.5
78767;SHT31;68092;51.982;5.680;2023-10-13T06:47:41;21.5;73.5
78767;SHT31;68092;51.982;5.680;2023-10-13T06:50:11;21.6;73.5
78767;SHT31;68092;51.982;5.680;2023-10-13T06:52:48;21.6;73.5
78767;SHT31;68092;51.982;5.680;2023-10-13T06:55:21;21.6;73.4
78767;SHT31;68092;51.982;5.680;2023-10-13T06:57:55;21.6;73.5
78767;SHT31;68092;51.982;5.680;2023-10-13T07:00:26;21.6;73.4
78767;SHT31;68092;51.982;5.680;2023-10-13T07:03:01;21.6;73.6
78767;SHT31;68092;51.982;5.680;2023-10-13T07:05:37;21.6;73.6
78767;SHT31;68092;51.982;5.680;2023-10-13T07:08:10;21.6;73.6
78767;SHT31;68092;51.982;5.680;2023-10-13T07:10:51;21.6;73.6
78767;SHT31;68092;51.982;5.680;2023-10-13T07:13:25;21.6;73.7
78767;SHT31;68092;51.982;5.680;2023-10-13T07:15:54;21.6;73.6
78767;SHT31;68092;51.982;5.680;2023-10-13T07:18:28;21.6;73.5
78767;SHT31;68092;51.982;5.680;2023-10-13T07:21:01;21.6;73.3
78767;SHT31;68092;51.982;5.680;2023-10-13T07:23:35;21.6;73.4
78767;SHT31;68092;51.982;5.680;2023-10-13T07:26:05;21.6;73.3
78767;SHT31;68092;51.982;5.680;2023-10-13T07:28:34;21.6;73.3
78767;SHT31;68092;51.982;5.680;2023-10-13T07:31:11;21.6;73.0
78767;SHT31;68092;51.982;5.680;2023-10-13T07:33:41;21.6;72.9
78767;SHT31;68092;51.982;5.680;2023-10-13T07:36:11;21.6;72.9
78767;SHT31;68092;51.982;5.680;2023-10-13T07:38:42;21.6;72.9
78767;SHT31;68092;51.982;5.680;2023-10-13T07:41:15;21.5;72.9
78767;SHT31;68092;51.982;5.680;2023-10-13T07:43:48;21.5;73.1
78767;SHT31;68092;51.982;5.680;2023-10-13T07:46:17;21.6;73.0
78767;SHT31;68092;51.982;5.680;2023-10-13T07:48:50;21.5;73.0
78767;SHT31;68092;51.982;5.680;2023-10-13T07:51:20;21.5;73.0
78767;SHT31;68092;51.982;5.680;2023-10-13T07:53:53;21.5;73.2
78767;SHT31;68092;51.982;5.680;2023-10-13T07:56:21;21.5;73.4
78767;SHT31;68092;51.982;5.680;2023-10-13T07:58:50;21.5;73.4
78767;SHT31;68092;51.982;5.680;2023-10-13T08:01:26;21.5;73.2
78767;SHT31;68092;51.982;5.680;2023-10-13T08:03:54;21.5;73.4
78767;SHT31;68092;51.982;5.680;2023-10-13T08:06:36;21.5;73.5
78767;SHT31;68092;51.982;5.680;2023-10-13T08:09:07;21.5;73.5
78767;SHT31;68092;51.982;5.680;2023-10-13T08:11:41;21.5;73.5
78767;SHT31;68092;51.982;5.680;2023-10-13T08:14:09;21.5;73.6
78767;SHT31;68092;51.982;5.680;2023-10-13T08:16:51;21.5;73.7
78767;SHT31;68092;51.982;5.680;2023-10-13T08:19:27;21.5;73.7
78767;SHT31;68092;51.982;5.680;2023-10-13T08:22:02;21.5;73.5
78767;SHT31;68092;51.982;5.680;2023-10-13T08:24:49;21.6;73.6
78767;SHT31;68092;51.982;5.680;2023-10-13T08:27:48;21.6;73.3
78767;SHT31;68092;51.982;5.680;2023-10-13T08:30:22;21.6;73.6
78767;SHT31;68092;51.982;5.680;2023-10-13T08:32:57;21.6;73.5
78767;SHT31;68092;51.982;5.680;2023-10-13T08:35:31;21.6;73.2
78767;SHT31;68092;51.982;5.680;2023-10-13T08:38:05;21.6;73.6
78767;SHT31;68092;51.982;5.680;2023-10-13T08:40:43;21.6;73.5
78767;SHT31;68092;51.982;5.680;2023-10-13T08:43:32;21.7;73.3
78767;SHT31;68092;51.982;5.680;2023-10-13T08:46:11;21.7;72.9
78767;SHT31;68092;51.982;5.680;2023-10-13T08:48:48;21.7;72.4
78767;SHT31;68092;51.982;5.680;2023-10-13T08:51:20;21.8;72.4
78767;SHT31;68092;51.982;5.680;2023-10-13T08:53:55;21.8;72.3
78767;SHT31;68092;51.982;5.680;2023-10-13T08:56:35;21.8;72.1
78767;SHT31;68092;51.982;5.680;2023-10-13T08:59:09;21.8;71.9
78767;SHT31;68092;51.982;5.680;2023-10-13T09:01:42;21.8;72.0
78767;SHT31;68092;51.982;5.680;2023-10-13T09:04:16;21.9;71.4
78767;SHT31;68092;51.982;5.680;2023-10-13T09:06:51;21.9;71.6
78767;SHT31;68092;51.982;5.680;2023-10-13T09:09:47;21.9;71.2
78767;SHT31;68092;51.982;5.680;2023-10-13T09:12:33;21.9;70.9
78767;SHT31;68092;51.982;5.680;2023-10-13T09:15:08;22.0;70.9
78767;SHT31;68092;51.982;5.680;2023-10-13T09:17:53;22.0;70.6
78767;SHT31;68092;51.982;5.680;2023-10-13T09:20:31;22.0;70.2
78767;SHT31;68092;51.982;5.680;2023-10-13T09:23:09;22.0;69.8
78767;SHT31;68092;51.982;5.680;2023-10-13T09:25:40;22.0;70.0
78767;SHT31;68092;51.982;5.680;2023-10-13T09:28:16;22.1;70.1
78767;SHT31;68092;51.982;5.680;2023-10-13T09:30:47;22.1;69.6
78767;SHT31;68092;51.982;5.680;2023-10-13T09:33:22;22.1;69.7
78767;SHT31;68092;51.982;5.680;2023-10-13T09:35:59;22.1;69.6
78767;SHT31;68092;51.982;5.680;2023-10-13T09:38:33;22.1;69.9
78767;SHT31;68092;51.982;5.680;2023-10-13T09:41:04;22.1;69.4
78767;SHT31;68092;51.982;5.680;2023-10-13T09:43:43;22.2;69.5
78767;SHT31;68092;51.982;5.680;2023-10-13T09:46:19;22.2;69.1
78767;SHT31;68092;51.982;5.680;2023-10-13T09:48:51;22.2;69.3
78767;SHT31;68092;51.982;5.680;2023-10-13T09:51:36;22.2;68.6
78767;SHT31;68092;51.982;5.680;2023-10-13T09:54:21;22.2;68.8
78767;SHT31;68092;51.982;5.680;2023-10-13T09:56:50;22.3;68.6
78767;SHT31;68092;51.982;5.680;2023-10-13T09:59:26;22.3;68.5
78767;SHT31;68092;51.982;5.680;2023-10-13T10:02:02;22.3;69.0
78767;SHT31;68092;51.982;5.680;2023-10-13T10:04:36;22.3;68.4
78767;SHT31;68092;51.982;5.680;2023-10-13T10:07:10;22.3;67.8
78767;SHT31;68092;51.982;5.680;2023-10-13T10:09:44;22.3;67.6
78767;SHT31;68092;51.982;5.680;2023-10-13T10:12:24;22.3;67.6
78767;SHT31;68092;51.982;5.680;2023-10-13T10:15:06;22.3;67.7
78767;SHT31;68092;51.982;5.680;2023-10-13T10:17:41;22.4;67.5
78767;SHT31;68092;51.982;5.680;2023-10-13T10:20:12;22.4;67.4
78767;SHT31;68092;51.982;5.680;2023-10-13T10:23:00;22.4;66.4
78767;SHT31;68092;51.982;5.680;2023-10-13T10:25:49;22.4;66.5
78767;SHT31;68092;51.982;5.680;2023-10-13T10:28:18;22.4;66.6
78767;SHT31;68092;51.982;5.680;2023-10-13T10:30:48;22.4;66.6
78767;SHT31;68092;51.982;5.680;2023-10-13T10:33:19;22.4;66.3
78767;SHT31;68092;51.982;5.680;2023-10-13T10:36:03;22.4;66.8
78767;SHT31;68092;51.982;5.680;2023-10-13T10:38:33;22.4;66.6
78767;SHT31;68092;51.982;5.680;2023-10-13T10:41:06;22.4;67.0
78767;SHT31;68092;51.982;5.680;2023-10-13T10:43:42;22.4;67.1
78767;SHT31;68092;51.982;5.680;2023-10-13T10:46:13;22.4;67.0
78767;SHT31;68092;51.982;5.680;2023-10-13T10:48:42;22.4;67.2
78767;SHT31;68092;51.982;5.680;2023-10-13T10:51:13;22.4;66.9
78767;SHT31;68092;51.982;5.680;2023-10-13T10:53:51;22.5;66.7
78767;SHT31;68092;51.982;5.680;2023-10-13T10:56:24;22.5;66.9
78767;SHT31;68092;51.982;5.680;2023-10-13T10:58:58;22.5;66.7
78767;SHT31;68092;51.982;5.680;2023-10-13T11:01:29;22.5;66.4
78767;SHT31;68092;51.982;5.680;2023-10-13T11:04:06;22.6;66.2
78767;SHT31;68092;51.982;5.680;2023-10-13T11:06:48;22.6;66.4
78767;SHT31;68092;51.982;5.680;2023-10-13T11:09:26;22.6;66.2
78767;SHT31;68092;51.982;5.680;2023-10-13T11:12:11;22.7;65.8
78767;SHT31;68092;51.982;5.680;2023-10-13T11:14:48;22.7;64.8
78767;SHT31;68092;51.982;5.680;2023-10-13T11:17:22;22.7;64.8
78767;SHT31;68092;51.982;5.680;2023-10-13T11:20:07;22.7;65.2
78767;SHT31;68092;51.982;5.680;2023-10-13T11:22:39;22.7;65.3
78767;SHT31;68092;51.982;5.680;2023-10-13T11:25:21;22.7;64.4
78767;SHT31;68092;51.982;5.680;2023-10-13T11:28:17;22.8;64.0
78767;SHT31;68092;51.982;5.680;2023-10-13T11:30:48;22.8;64.2
78767;SHT31;68092;51.982;5.680;2023-10-13T11:33:18;22.8;63.8
78767;SHT31;68092;51.982;5.680;2023-10-13T11:35:50;22.8;64.1
78767;SHT31;68092;51.982;5.680;2023-10-13T11:38:35;22.8;63.5
78767;SHT31;68092;51.982;5.680;2023-10-13T11:41:15;22.8;63.5
78767;SHT31;68092;51.982;5.680;2023-10-13T11:43:47;22.8;62.9
78767;SHT31;68092;51.982;5.680;2023-10-13T11:46:38;22.8;62.7
78767;SHT31;68092;51.982;5.680;2023-10-13T11:49:28;22.8;62.7
78767;SHT31;68092;51.982;5.680;2023-10-13T11:52:05;22.8;63.0
78767;SHT31;68092;51.982;5.680;2023-10-13T11:54:42;22.8;62.4
78767;SHT31;68092;51.982;5.680;2023-10-13T11:57:13;22.8;62.1
78767;SHT31;68092;51.982;5.680;2023-10-13T11:59:44;22.8;62.8
78767;SHT31;68092;51.982;5.680;2023-10-13T12:02:18;22.8;62.8
78767;SHT31;68092;51.982;5.680;2023-10-13T12:05:05;22.8;62.7
78767;SHT31;68092;51.982;5.680;2023-10-13T12:07:43;22.8;63.3
78767;SHT31;68092;51.982;5.680;2023-10-13T12:10:18;22.8;63.5
78767;SHT31;68092;51.982;5.680;2023-10-13T12:13:05;22.8;63.8
78767;SHT31;68092;51.982;5.680;2023-10-13T12:15:37;22.8;63.5
78767;SHT31;68092;51.982;5.680;2023-10-13T12:18:11;22.8;63.4
78767;SHT31;68092;51.982;5.680;2023-10-13T12:20:41;22.8;64.0
78767;SHT31;68092;51.982;5.680;2023-10-13T12:23:11;22.8;63.9
78767;SHT31;68092;51.982;5.680;2023-10-13T12:25:51;22.8;63.7
78767;SHT31;68092;51.982;5.680;2023-10-13T12:28:26;22.8;63.1
78767;SHT31;68092;51.982;5.680;2023-10-13T12:31:04;22.8;63.5
78767;SHT31;68092;51.982;5.680;2023-10-13T12:33:37;22.9;63.1
78767;SHT31;68092;51.982;5.680;2023-10-13T12:36:07;22.9;63.5
78767;SHT31;68092;51.982;5.680;2023-10-13T12:38:41;22.9;63.0
78767;SHT31;68092;51.982;5.680;2023-10-13T12:41:24;23.0;63.0
78767;SHT31;68092;51.982;5.680;2023-10-13T12:44:09;23.0;62.8
78767;SHT31;68092;51.982;5.680;2023-10-13T12:46:53;23.0;62.9
78767;SHT31;68092;51.982;5.680;2023-10-13T12:49:38;23.0;63.7
78767;SHT31;68092;51.982;5.680;2023-10-13T12:52:13;23.0;63.1
78767;SHT31;68092;51.982;5.680;2023-10-13T12:54:46;23.0;62.9
78767;SHT31;68092;51.982;5.680;2023-10-13T12:57:20;23.1;62.5
78767;SHT31;68092;51.982;5.680;2023-10-13T12:59:49;23.1;62.7
78767;SHT31;68092;51.982;5.680;2023-10-13T13:02:20;23.1;62.5
78767;SHT31;68092;51.982;5.680;2023-10-13T13:04:51;23.1;62.3
78767;SHT31;68092;51.982;5.680;2023-10-13T13:07:23;23.1;61.9
78767;SHT31;68092;51.982;5.680;2023-10-13T13:10:01;23.1;61.7
78767;SHT31;68092;51.982;5.680;2023-10-13T13:12:29;23.1;62.1
78767;SHT31;68092;51.982;5.680;2023-10-13T13:14:58;23.1;61.2
78767;SHT31;68092;51.982;5.680;2023-10-13T13:17:27;23.2;61.6
78767;SHT31;68092;51.982;5.680;2023-10-13T13:19:55;23.2;61.4
78767;SHT31;68092;51.982;5.680;2023-10-13T13:22:24;23.2;61.1
78767;SHT31;68092;51.982;5.680;2023-10-13T13:24:54;23.2;61.6
78767;SHT31;68092;51.982;5.680;2023-10-13T13:27:22;23.2;61.3
78767;SHT31;68092;51.982;5.680;2023-10-13T13:29:53;23.2;61.1
78767;SHT31;68092;51.982;5.680;2023-10-13T13:32:22;23.2;60.9
78767;SHT31;68092;51.982;5.680;2023-10-13T13:34:54;23.2;61.2
78767;SHT31;68092;51.982;5.680;2023-10-13T13:37:31;23.2;62.6
78767;SHT31;68092;51.982;5.680;2023-10-13T13:40:03;23.2;62.0
78767;SHT31;68092;51.982;5.680;2023-10-13T13:42:38;23.2;62.1
78767;SHT31;68092;51.982;5.680;2023-10-13T13:45:11;23.2;62.7
78767;SHT31;68092;51.982;5.680;2023-10-13T13:47:54;23.2;63.2
78767;SHT31;68092;51.982;5.680;2023-10-13T13:50:26;23.2;63.3
78767;SHT31;68092;51.982;5.680;2023-10-13T13:52:56;23.2;62.5
78767;SHT31;68092;51.982;5.680;2023-10-13T13:55:26;23.2;62.7
78767;SHT31;68092;51.982;5.680;2023-10-13T13:57:58;23.2;62.5
78767;SHT31;68092;51.982;5.680;2023-10-13T14:00:27;23.2;63.0
78767;SHT31;68092;51.982;5.680;2023-10-13T14:03:15;23.2;63.4
78767;SHT31;68092;51.982;5.680;2023-10-13T14:05:57;23.2;63.4
78767;SHT31;68092;51.982;5.680;2023-10-13T14:08:31;23.2;63.2
78767;SHT31;68092;51.982;5.680;2023-10-13T14:11:01;23.2;63.7
78767;SHT31;68092;51.982;5.680;2023-10-13T14:13:48;23.1;63.5
78767;SHT31;68092;51.982;5.680;2023-10-13T14:16:22;23.1;63.7
78767;SHT31;68092;51.982;5.680;2023-10-13T14:18:51;23.1;64.1
78767;SHT31;68092;51.982;5.680;2023-10-13T14:21:22;23.1;64.3
78767;SHT31;68092;51.982;5.680;2023-10-13T14:23:52;23.1;64.7
78767;SHT31;68092;51.982;5.680;2023-10-13T14:26:21;23.0;65.3
78767;SHT31;68092;51.982;5.680;2023-10-13T14:28:51;23.0;65.0
78767;SHT31;68092;51.982;5.680;2023-10-13T14:31:25;23.0;64.8
78767;SHT31;68092;51.982;5.680;2023-10-13T14:33:54;23.0;64.7
78767;SHT31;68092;51.982;5.680;2023-10-13T14:36:24;22.9;65.2
78767;SHT31;68092;51.982;5.680;2023-10-13T14:38:55;22.9;65.4
78767;SHT31;68092;51.982;5.680;2023-10-13T14:41:24;22.9;65.4
78767;SHT31;68092;51.982;5.680;2023-10-13T14:43:52;22.9;65.3
78767;SHT31;68092;51.982;5.680;2023-10-13T14:46:23;22.8;65.9
78767;SHT31;68092;51.982;5.680;2023-10-13T14:48:54;22.8;66.0
78767;SHT31;68092;51.982;5.680;2023-10-13T14:51:23;22.8;66.5
78767;SHT31;68092;51.982;5.680;2023-10-13T14:53:51;22.8;66.5
78767;SHT31;68092;51.982;5.680;2023-10-13T14:56:23;22.7;67.0
78767;SHT31;68092;51.982;5.680;2023-10-13T14:58:54;22.7;66.6
78767;SHT31;68092;51.982;5.680;2023-10-13T15:01:23;22.7;66.7
78767;SHT31;68092;51.982;5.680;2023-10-13T15:03:54;22.7;66.6
78767;SHT31;68092;51.982;5.680;2023-10-13T15:06:26;22.7;66.2
78767;SHT31;68092;51.982;5.680;2023-10-13T15:08:56;22.7;66.7
78767;SHT31;68092;51.982;5.680;2023-10-13T15:11:27;22.7;66.7
78767;SHT31;68092;51.982;5.680;2023-10-13T15:14:01;22.7;66.9
78767;SHT31;68092;51.982;5.680;2023-10-13T15:16:29;22.7;67.2
78767;SHT31;68092;51.982;5.680;2023-10-13T15:19:01;22.6;67.1
78767;SHT31;68092;51.982;5.680;2023-10-13T15:21:30;22.6;66.8
78767;SHT31;68092;51.982;5.680;2023-10-13T15:24:02;22.6;67.1
78767;SHT31;68092;51.982;5.680;2023-10-13T15:26:40;22.6;67.3
78767;SHT31;68092;51.982;5.680;2023-10-13T15:29:11;22.6;67.4
78767;SHT31;68092;51.982;5.680;2023-10-13T15:31:42;22.6;67.1
78767;SHT31;68092;51.982;5.680;2023-10-13T15:34:16;22.6;67.2
78767;SHT31;68092;51.982;5.680;2023-10-13T15:36:44;22.6;67.4
78767;SHT31;68092;51.982;5.680;2023-10-13T15:39:13;22.6;68.0
78767;SHT31;68092;51.982;5.680;2023-10-13T15:41:42;22.5;67.5
78767;SHT31;68092;51.982;5.680;2023-10-13T15:44:12;22.5;67.2
78767;SHT31;68092;51.982;5.680;2023-10-13T15:46:41;22.5;67.4
78767;SHT31;68092;51.982;5.680;2023-10-13T15:49:15;22.5;67.9
78767;SHT31;68092;51.982;5.680;2023-10-13T15:51:46;22.5;67.3
78767;SHT31;68092;51.982;5.680;2023-10-13T15:54:17;22.5;67.9
78767;SHT31;68092;51.982;5.680;2023-10-13T15:56:49;22.5;68.3
78767;SHT31;68092;51.982;5.680;2023-10-13T15:59:20;22.5;68.0
78767;SHT31;68092;51.982;5.680;2023-10-13T16:01:50;22.5;67.9
78767;SHT31;68092;51.982;5.680;2023-10-13T16:04:23;22.6;67.5
78767;SHT31;68092;51.982;5.680;2023-10-13T16:06:54;22.6;67.4
78767;SHT31;68092;51.982;5.680;2023-10-13T16:09:23;22.6;66.9
78767;SHT31;68092;51.982;5.680;2023-10-13T16:11:53;22.6;66.4
78767;SHT31;68092;51.982;5.680;2023-10-13T16:14:22;22.6;66.5
78767;SHT31;68092;51.982;5.680;2023-10-13T16:16:51;22.6;67.0
78767;SHT31;68092;51.982;5.680;2023-10-13T16:19:22;22.6;66.7
78767;SHT31;68092;51.982;5.680;2023-10-13T16:21:52;22.6;65.7
78767;SHT31;68092;51.982;5.680;2023-10-13T16:24:21;22.5;66.1
78767;SHT31;68092;51.982;5.680;2023-10-13T16:26:51;22.5;66.4
78767;SHT31;68092;51.982;5.680;2023-10-13T16:29:23;22.5;65.2
78767;SHT31;68092;51.982;5.680;2023-10-13T16:31:51;22.5;65.5
78767;SHT31;68092;51.982;5.680;2023-10-13T16:34:20;22.5;65.9
78767;SHT31;68092;51.982;5.680;2023-10-13T16:36:52;22.5;65.2
78767;SHT31;68092;51.982;5.680;2023-10-13T16:39:21;22.5;65.9
78767;SHT31;68092;51.982;5.680;2023-10-13T16:41:51;22.5;66.0
78767;SHT31;68092;51.982;5.680;2023-10-13T16:44:25;22.5;65.4
78767;SHT31;68092;51.982;5.680;2023-10-13T16:46:53;22.5;64.7
78767;SHT31;68092;51.982;5.680;2023-10-13T16:49:27;22.5;64.9
78767;SHT31;68092;51.982;5.680;2023-10-13T16:51:56;22.5;64.6
78767;SHT31;68092;51.982;5.680;2023-10-13T16:54:26;22.5;64.4
78767;SHT31;68092;51.982;5.680;2023-10-13T16:56:55;22.5;64.4